createdAt,value
2022-11-25T00:02:53.340Z,6.38
2022-11-25T00:07:54.808Z,6.52
2022-11-25T00:12:56.264Z,6.40
2022-11-25T00:17:57.583Z,6.40
2022-11-25T00:22:59.161Z,6.41
2022-11-25T00:28:00.539Z,6.32
2022-11-25T00:33:01.909Z,6.26
2022-11-25T00:38:03.244Z,6.33
2022-11-25T00:43:23.246Z,6.28
2022-11-25T00:48:24.530Z,6.47
2022-11-25T00:53:26.044Z,6.43
2022-11-25T00:58:27.288Z,6.35
2022-11-25T01:03:28.579Z,6.29
2022-11-25T01:08:30.720Z,6.30
2022-11-25T01:13:32.929Z,6.32
2022-11-25T01:18:34.941Z,6.27
2022-11-25T01:23:36.616Z,6.20
2022-11-25T01:28:38.504Z,6.28
2022-11-25T01:33:40.391Z,6.14
2022-11-25T01:38:42.373Z,6.36
2022-11-25T01:43:43.755Z,6.30
2022-11-25T01:48:52.078Z,6.46
2022-11-25T01:53:57.725Z,6.49
2022-11-25T01:58:59.472Z,6.52
2022-11-25T02:04:01.030Z,6.50
2022-11-25T02:09:06.733Z,6.56
2022-11-25T02:14:09.379Z,6.55
2022-11-25T02:19:22.388Z,6.51
2022-11-25T02:24:34.651Z,6.52
2022-11-25T02:29:37.238Z,6.42
2022-11-25T02:34:46.792Z,6.39
2022-11-25T02:39:49.905Z,6.23
2022-11-25T02:44:51.295Z,6.24
2022-11-25T02:49:52.567Z,6.29
2022-11-25T02:54:53.890Z,6.29
2022-11-25T02:59:55.169Z,6.20
2022-11-25T03:04:56.481Z,6.25
2022-11-25T03:09:57.777Z,6.21
2022-11-25T03:14:59.150Z,6.21
2022-11-25T03:20:00.460Z,6.15
2022-11-25T03:25:01.987Z,6.18
2022-11-25T03:30:05.592Z,6.22
2022-11-25T03:35:07.557Z,6.29
2022-11-25T03:40:11.311Z,6.25
2022-11-25T03:45:14.843Z,6.13
2022-11-25T03:50:16.657Z,6.52
2022-11-25T03:55:18.087Z,6.56
2022-11-25T04:00:19.624Z,6.49
2022-11-25T04:05:20.873Z,6.46
2022-11-25T04:10:22.165Z,6.46
2022-11-25T04:15:23.437Z,6.44
2022-11-25T04:20:24.745Z,6.50
2022-11-25T04:25:26.092Z,6.47
2022-11-25T04:30:27.532Z,6.50
2022-11-25T04:35:28.992Z,6.42
2022-11-25T04:40:30.270Z,6.57
2022-11-25T04:45:51.515Z,6.65
2022-11-25T04:50:52.980Z,6.61
2022-11-25T04:55:54.338Z,6.61
2022-11-25T05:00:55.662Z,6.61
2022-11-25T05:05:57.032Z,6.54
2022-11-25T05:10:59.452Z,6.52
2022-11-25T05:16:00.716Z,6.49
2022-11-25T05:21:03.326Z,6.63
2022-11-25T05:26:05.064Z,6.53
2022-11-25T05:31:06.451Z,6.49
2022-11-25T05:36:08.209Z,6.63
2022-11-25T05:41:11.186Z,6.65
2022-11-25T05:46:12.508Z,6.66
2022-11-25T05:51:13.871Z,6.69
2022-11-25T05:56:15.498Z,6.75
2022-11-25T06:01:17.415Z,6.72
2022-11-25T06:06:19.753Z,6.73
2022-11-25T06:11:21.097Z,6.80
2022-11-25T06:16:23.264Z,6.84
2022-11-25T06:21:24.617Z,6.85
2022-11-25T06:26:25.911Z,6.73
2022-11-25T06:31:27.449Z,6.85
2022-11-25T06:36:28.948Z,6.83
2022-11-25T06:41:30.239Z,6.78
2022-11-25T06:46:31.579Z,6.81
2022-11-25T06:51:33.262Z,6.94
2022-11-25T06:56:34.501Z,7.02
2022-11-25T07:01:36.206Z,7.11
2022-11-25T07:06:37.657Z,7.20
2022-11-25T07:11:40.511Z,7.20
2022-11-25T07:16:44.468Z,7.33
2022-11-25T07:21:46.240Z,7.34
2022-11-25T07:26:47.758Z,7.38
2022-11-25T07:31:49.049Z,7.44
2022-11-25T07:36:50.696Z,7.62
2022-11-25T07:41:53.887Z,7.70
2022-11-25T07:46:55.392Z,7.67
2022-11-25T07:52:02.852Z,7.73
2022-11-25T07:57:04.175Z,7.71
2022-11-25T08:02:05.660Z,7.81
2022-11-25T08:07:07.058Z,7.84
2022-11-25T08:12:08.526Z,7.95
2022-11-25T08:17:10.150Z,7.96
2022-11-25T08:22:11.482Z,7.95
2022-11-25T08:27:12.833Z,7.94
2022-11-25T08:32:14.407Z,7.95
2022-11-25T08:37:15.719Z,7.89
2022-11-25T08:42:17.037Z,7.95
2022-11-25T08:47:18.494Z,8.00
2022-11-25T08:52:21.128Z,8.12
2022-11-25T08:57:22.438Z,8.02
2022-11-25T09:02:24.838Z,8.05
2022-11-25T09:07:30.700Z,8.04
2022-11-25T09:12:32.433Z,8.08
2022-11-25T09:17:37.211Z,8.14
2022-11-25T09:22:38.476Z,8.05
2022-11-25T09:27:39.794Z,8.07
2022-11-25T09:32:41.368Z,8.17
2022-11-25T09:37:42.682Z,8.00
2022-11-25T09:43:08.727Z,8.09
2022-11-25T09:48:19.767Z,8.17
2022-11-25T09:53:42.176Z,8.40
2022-11-25T09:58:53.346Z,8.54
2022-11-25T10:04:02.061Z,8.21
2022-11-25T10:09:28.697Z,8.14
2022-11-25T10:14:46.423Z,8.41
2022-11-25T10:19:59.063Z,8.70
2022-11-25T10:25:20.141Z,11.13
2022-11-25T10:30:38.288Z,11.51
2022-11-25T10:35:45.830Z,11.95
2022-11-25T10:40:50.607Z,15.48
2022-11-25T10:46:15.084Z,14.57
2022-11-25T10:51:35.947Z,13.59
2022-11-25T10:57:03.992Z,12.11
2022-11-25T11:02:23.541Z,11.45
2022-11-25T11:07:28.421Z,11.84
2022-11-25T11:12:29.864Z,13.13
2022-11-25T11:17:37.113Z,16.50
2022-11-25T11:22:48.170Z,19.54
2022-11-25T11:27:49.537Z,21.45
2022-11-25T11:32:58.298Z,18.23
2022-11-25T11:38:07.021Z,15.14
2022-11-25T11:43:46.332Z,13.12
2022-11-25T11:48:54.769Z,12.08
2022-11-25T11:54:08.407Z,11.35
2022-11-25T11:59:46.567Z,11.02
2022-11-25T12:05:14.118Z,11.13
2022-11-25T12:10:15.454Z,11.83
2022-11-25T12:15:39.928Z,13.95
2022-11-25T12:21:05.297Z,13.77
2022-11-25T12:26:17.334Z,18.80
2022-11-25T12:31:30.360Z,22.76
2022-11-25T12:36:38.235Z,24.92
2022-11-25T12:41:46.999Z,24.60
2022-11-25T12:46:54.362Z,24.76
2022-11-25T12:52:07.739Z,21.07
2022-11-25T12:57:43.142Z,19.96
2022-11-25T13:03:07.061Z,22.84
2022-11-25T13:08:33.833Z,24.79
2022-11-25T13:14:08.236Z,21.51
2022-11-25T13:19:13.600Z,19.99
2022-11-25T13:24:30.803Z,17.31
2022-11-25T13:29:32.156Z,15.06
2022-11-25T13:34:35.467Z,14.08
2022-11-25T13:39:38.231Z,13.94
2022-11-25T13:44:52.535Z,13.63
2022-11-25T13:50:23.259Z,13.16
2022-11-25T13:55:39.686Z,13.04
2022-11-25T14:01:01.389Z,12.98
2022-11-25T14:06:09.940Z,12.83
2022-11-25T14:11:11.281Z,12.57
2022-11-25T14:16:21.650Z,12.17
2022-11-25T14:21:52.180Z,11.98
2022-11-25T14:26:57.321Z,11.70
2022-11-25T14:32:05.020Z,11.47
2022-11-25T14:37:29.470Z,11.47
2022-11-25T14:42:38.369Z,11.35
2022-11-25T14:47:39.682Z,11.43
2022-11-25T14:52:47.441Z,11.34
2022-11-25T14:57:49.010Z,11.19
2022-11-25T15:03:00.164Z,11.22
2022-11-25T15:08:03.217Z,11.22
2022-11-25T15:13:44.561Z,11.13
2022-11-25T15:18:52.915Z,11.03
2022-11-25T15:23:54.593Z,11.00
2022-11-25T15:28:57.196Z,10.99
2022-11-25T15:34:03.977Z,10.98
2022-11-25T15:39:19.000Z,10.89
2022-11-25T15:44:25.942Z,10.79
2022-11-25T15:49:27.931Z,10.64
2022-11-25T15:54:33.465Z,10.63
2022-11-25T15:59:40.774Z,10.51
2022-11-25T16:04:42.044Z,10.45
2022-11-25T16:09:51.216Z,10.27
2022-11-25T16:14:52.503Z,10.34
2022-11-25T16:19:53.833Z,10.36
2022-11-25T16:25:00.570Z,10.28
2022-11-25T16:30:06.698Z,10.11
2022-11-25T16:35:22.028Z,10.24
2022-11-25T16:40:24.421Z,10.31
2022-11-25T16:45:27.722Z,10.22
2022-11-25T16:50:29.111Z,10.20
2022-11-25T16:55:30.747Z,10.13
2022-11-25T17:00:32.278Z,9.91
2022-11-25T17:05:33.719Z,9.89
2022-11-25T17:10:35.216Z,9.93
2022-11-25T17:15:38.092Z,10.04
2022-11-25T17:20:39.517Z,10.09
2022-11-25T17:25:45.067Z,10.13
2022-11-25T17:30:47.241Z,10.17
2022-11-25T17:35:48.566Z,10.16
2022-11-25T17:40:50.576Z,10.30
2022-11-25T17:45:52.067Z,10.30
2022-11-25T17:50:53.376Z,10.23
2022-11-25T17:55:54.839Z,10.35
2022-11-25T18:00:56.242Z,10.27
2022-11-25T18:05:57.967Z,10.36
2022-11-25T18:11:02.633Z,10.43
2022-11-25T18:16:04.511Z,10.40
2022-11-25T18:21:05.871Z,10.27
2022-11-25T18:26:11.552Z,10.32
2022-11-25T18:31:12.931Z,10.35
2022-11-25T18:36:14.330Z,10.42
2022-11-25T18:41:21.399Z,10.31
2022-11-25T18:46:22.786Z,10.35
2022-11-25T18:51:24.275Z,10.35
2022-11-25T18:56:25.667Z,10.34
2022-11-25T19:01:27.925Z,10.26
2022-11-25T19:06:29.405Z,10.17
2022-11-25T19:11:36.434Z,10.17
2022-11-25T19:16:38.467Z,10.23
2022-11-25T19:21:39.865Z,10.33
2022-11-25T19:26:45.164Z,10.30
2022-11-25T19:31:49.301Z,10.29
2022-11-25T19:36:50.909Z,10.37
2022-11-25T19:41:52.750Z,10.37
2022-11-25T19:52:19.480Z,10.39
2022-11-25T19:57:23.617Z,10.36
2022-11-25T20:02:26.394Z,10.29
2022-11-25T20:07:29.906Z,10.20
2022-11-25T20:12:31.224Z,10.29
2022-11-25T20:17:34.932Z,10.29
2022-11-25T20:22:39.506Z,10.23
2022-11-25T20:27:40.874Z,10.25
2022-11-25T20:32:42.187Z,10.15
2022-11-25T20:38:00.423Z,10.13
2022-11-25T20:43:01.826Z,10.11
2022-11-25T20:48:03.455Z,9.97
2022-11-25T20:53:05.149Z,9.97
2022-11-25T20:58:20.513Z,9.90
2022-11-25T21:03:22.079Z,9.86
2022-11-25T21:08:25.829Z,9.82
2022-11-25T21:13:29.579Z,9.68
2022-11-25T21:18:30.836Z,9.58
2022-11-25T21:23:34.990Z,9.48
2022-11-25T21:28:41.723Z,9.44
2022-11-25T21:33:44.257Z,9.15
2022-11-25T21:38:47.372Z,9.28
2022-11-25T21:43:50.011Z,9.10
2022-11-25T21:48:51.369Z,8.99
2022-11-25T21:53:53.864Z,8.89
2022-11-25T21:58:56.405Z,8.93
2022-11-25T22:03:58.536Z,8.91
2022-11-25T22:08:59.872Z,9.01
2022-11-25T22:14:05.065Z,9.05
2022-11-25T22:19:06.364Z,8.95
2022-11-25T22:24:18.323Z,8.91
2022-11-25T22:29:23.503Z,8.91
2022-11-25T22:34:25.366Z,8.82
2022-11-25T22:39:27.069Z,8.75
2022-11-25T22:44:46.707Z,8.64
2022-11-25T22:49:49.553Z,8.46
2022-11-25T22:54:50.902Z,8.58
2022-11-25T22:59:52.217Z,8.55
2022-11-25T23:04:55.784Z,8.57
2022-11-25T23:09:57.177Z,8.60
2022-11-25T23:14:58.423Z,8.55
2022-11-25T23:19:59.708Z,8.48
2022-11-25T23:25:01.003Z,8.54
2022-11-25T23:30:02.303Z,8.51
2022-11-25T23:35:05.037Z,8.31
2022-11-25T23:40:13.378Z,8.37
2022-11-25T23:45:16.786Z,8.26
2022-11-25T23:50:26.118Z,8.26
2022-11-25T23:55:31.637Z,8.35
